createdAt,value
2022-07-27T00:00:47.041Z,17.88
2022-07-27T00:03:13.518Z,17.79
2022-07-27T00:05:39.935Z,17.75
2022-07-27T00:08:06.900Z,17.69
2022-07-27T00:10:34.371Z,17.79
2022-07-27T00:13:00.800Z,17.56
2022-07-27T00:15:27.347Z,17.64
2022-07-27T00:17:53.767Z,17.64
2022-07-27T00:20:20.230Z,17.66
2022-07-27T00:22:54.904Z,17.60
2022-07-27T00:25:22.175Z,17.56
2022-07-27T00:27:48.730Z,17.55
2022-07-27T00:30:15.184Z,17.57
2022-07-27T00:32:41.678Z,17.51
2022-07-27T00:35:08.867Z,17.47
2022-07-27T00:37:35.320Z,17.40
2022-07-27T00:40:02.350Z,17.26
2022-07-27T00:42:28.797Z,17.20
2022-07-27T00:44:55.587Z,17.13
2022-07-27T00:47:22.492Z,16.95
2022-07-27T00:49:48.954Z,17.02
2022-07-27T00:52:15.828Z,16.98
2022-07-27T00:54:43.795Z,16.94
2022-07-27T00:57:11.491Z,16.88
2022-07-27T00:59:38.524Z,16.77
2022-07-27T01:02:11.377Z,16.72
2022-07-27T01:04:38.989Z,16.44
2022-07-27T01:07:07.195Z,16.48
2022-07-27T01:09:53.115Z,16.38
2022-07-27T01:12:20.912Z,16.35
2022-07-27T01:14:49.200Z,16.25
2022-07-27T01:17:16.759Z,16.21
2022-07-27T01:19:44.404Z,16.19
2022-07-27T01:22:11.588Z,16.13
2022-07-27T01:24:38.347Z,16.02
2022-07-27T01:27:06.022Z,16.03
2022-07-27T01:29:33.684Z,16.03
2022-07-27T01:32:01.597Z,15.95
2022-07-27T01:34:28.060Z,15.77
2022-07-27T01:36:54.540Z,15.81
2022-07-27T01:39:21.089Z,15.85
2022-07-27T01:41:47.537Z,15.83
2022-07-27T01:44:14.253Z,15.78
2022-07-27T01:46:40.820Z,15.74
2022-07-27T01:49:07.427Z,15.69
2022-07-27T01:51:33.903Z,15.60
2022-07-27T01:54:00.374Z,15.51
2022-07-27T01:56:27.045Z,15.41
2022-07-27T01:58:53.526Z,15.27
2022-07-27T02:01:19.981Z,15.23
2022-07-27T02:03:46.511Z,15.10
2022-07-27T02:06:13.013Z,15.03
2022-07-27T02:08:40.023Z,14.79
2022-07-27T02:11:25.156Z,14.77
2022-07-27T02:13:51.589Z,14.69
2022-07-27T02:16:18.901Z,14.65
2022-07-27T02:18:46.088Z,14.59
2022-07-27T02:21:15.303Z,14.56
2022-07-27T02:23:44.510Z,14.53
2022-07-27T02:26:11.326Z,14.57
2022-07-27T02:28:37.898Z,14.58
2022-07-27T02:31:05.037Z,14.61
2022-07-27T02:33:31.786Z,14.58
2022-07-27T02:35:58.290Z,14.58
2022-07-27T02:38:25.870Z,14.49
2022-07-27T02:40:52.546Z,14.42
2022-07-27T02:43:18.973Z,14.37
2022-07-27T02:45:46.504Z,14.36
2022-07-27T02:48:13.305Z,14.38
2022-07-27T02:50:39.766Z,14.36
2022-07-27T02:53:06.211Z,14.31
2022-07-27T02:55:32.641Z,14.31
2022-07-27T02:57:59.084Z,14.23
2022-07-27T03:00:25.798Z,14.16
2022-07-27T03:02:52.301Z,14.12
2022-07-27T03:05:18.774Z,14.11
2022-07-27T03:07:45.210Z,14.13
2022-07-27T03:10:11.680Z,14.11
2022-07-27T03:12:38.118Z,14.09
2022-07-27T03:15:05.158Z,13.98
2022-07-27T03:17:32.802Z,14.07
2022-07-27T03:19:59.336Z,14.08
2022-07-27T03:22:25.857Z,14.12
2022-07-27T03:24:52.300Z,14.08
2022-07-27T03:27:18.746Z,14.17
2022-07-27T03:29:45.850Z,14.08
2022-07-27T03:32:12.314Z,14.04
2022-07-27T03:34:38.769Z,14.02
2022-07-27T03:37:05.394Z,14.01
2022-07-27T03:39:31.852Z,14.05
2022-07-27T03:41:58.367Z,14.08
2022-07-27T03:44:24.779Z,14.02
2022-07-27T03:46:51.209Z,13.96
2022-07-27T03:49:17.894Z,13.97
2022-07-27T03:51:44.424Z,14.02
2022-07-27T03:54:10.850Z,14.02
2022-07-27T03:56:37.263Z,14.08
2022-07-27T03:59:03.809Z,14.08
2022-07-27T04:01:30.334Z,14.00
2022-07-27T04:03:56.879Z,14.03
2022-07-27T04:06:23.375Z,14.01
2022-07-27T04:08:50.772Z,13.99
2022-07-27T04:11:20.348Z,13.96
2022-07-27T04:13:50.978Z,14.03
2022-07-27T04:16:17.615Z,14.06
2022-07-27T04:18:44.078Z,14.02
2022-07-27T04:21:10.629Z,14.13
2022-07-27T04:23:38.436Z,14.24
2022-07-27T04:26:05.119Z,14.19
2022-07-27T04:28:32.606Z,14.13
2022-07-27T04:30:59.291Z,14.06
2022-07-27T04:33:25.788Z,14.14
2022-07-27T04:35:52.231Z,14.18
2022-07-27T04:38:18.666Z,14.18
2022-07-27T04:40:45.092Z,14.28
2022-07-27T04:43:11.502Z,14.76
2022-07-27T04:45:38.905Z,14.62
2022-07-27T04:48:09.310Z,14.64
2022-07-27T04:50:40.877Z,14.70
2022-07-27T04:53:08.192Z,14.78
2022-07-27T04:55:34.640Z,14.72
2022-07-27T04:58:01.084Z,14.67
2022-07-27T05:00:27.597Z,14.78
2022-07-27T05:02:54.784Z,14.80
2022-07-27T05:05:21.427Z,14.79
2022-07-27T05:07:47.879Z,14.76
2022-07-27T05:10:19.491Z,14.80
2022-07-27T05:12:46.807Z,14.84
2022-07-27T05:15:13.266Z,14.86
2022-07-27T05:17:39.830Z,14.82
2022-07-27T05:20:06.757Z,14.91
2022-07-27T05:22:37.541Z,15.06
2022-07-27T05:25:06.554Z,15.12
2022-07-27T05:27:33.030Z,15.17
2022-07-27T05:29:59.478Z,15.27
2022-07-27T05:32:25.915Z,15.41
2022-07-27T05:34:52.353Z,15.51
2022-07-27T05:37:18.857Z,15.27
2022-07-27T05:39:45.304Z,15.55
2022-07-27T05:42:11.727Z,15.78
2022-07-27T05:44:38.163Z,15.71
2022-07-27T05:47:05.982Z,15.86
2022-07-27T05:49:32.956Z,16.27
2022-07-27T05:51:59.380Z,16.21
2022-07-27T05:54:25.806Z,16.35
2022-07-27T05:56:52.592Z,16.36
2022-07-27T05:59:19.100Z,16.29
2022-07-27T06:01:45.542Z,16.59
2022-07-27T06:04:14.550Z,16.56
2022-07-27T06:06:59.758Z,16.87
2022-07-27T06:09:26.196Z,16.90
2022-07-27T06:11:52.679Z,17.22
2022-07-27T06:14:19.260Z,17.78
2022-07-27T06:16:45.806Z,17.94
2022-07-27T06:19:12.664Z,18.23
2022-07-27T06:21:39.325Z,18.13
2022-07-27T06:24:06.120Z,17.90
2022-07-27T06:26:32.597Z,18.06
2022-07-27T06:29:01.086Z,17.88
2022-07-27T06:31:28.408Z,18.14
2022-07-27T06:34:02.202Z,17.99
2022-07-27T06:36:28.644Z,18.15
2022-07-27T06:38:55.140Z,17.82
2022-07-27T06:41:21.599Z,17.72
2022-07-27T06:43:48.090Z,18.06
2022-07-27T06:46:14.576Z,18.10
2022-07-27T06:48:41.608Z,18.03
2022-07-27T06:51:08.674Z,17.75
2022-07-27T06:53:36.255Z,18.02
2022-07-27T06:56:04.098Z,18.03
2022-07-27T06:58:35.064Z,17.96
2022-07-27T07:01:02.408Z,17.94
2022-07-27T07:03:29.779Z,17.96
2022-07-27T07:05:57.183Z,17.78
2022-07-27T07:08:23.614Z,17.73
2022-07-27T07:10:50.737Z,17.85
2022-07-27T07:13:17.146Z,17.79
2022-07-27T07:15:43.753Z,17.85
2022-07-27T07:18:11.507Z,17.80
2022-07-27T07:20:38.307Z,17.66
2022-07-27T07:23:05.475Z,17.88
2022-07-27T07:25:32.936Z,17.80
2022-07-27T07:27:59.880Z,17.90
2022-07-27T07:30:27.320Z,18.13
2022-07-27T07:32:53.813Z,18.11
2022-07-27T07:35:20.247Z,18.00
2022-07-27T07:37:49.755Z,17.97
2022-07-27T07:40:43.217Z,18.23
2022-07-27T07:43:05.818Z,18.31
2022-07-27T07:45:35.418Z,18.35
2022-07-27T07:48:01.840Z,18.57
2022-07-27T07:50:28.456Z,18.60
2022-07-27T07:52:55.261Z,18.73
2022-07-27T07:55:31.260Z,18.46
2022-07-27T07:57:59.887Z,18.22
2022-07-27T08:00:26.333Z,18.15
2022-07-27T08:02:55.196Z,18.14
2022-07-27T08:05:21.981Z,18.16
2022-07-27T08:07:49.611Z,18.37
2022-07-27T08:10:17.416Z,18.55
2022-07-27T08:12:47.364Z,18.67
2022-07-27T08:15:14.911Z,18.75
2022-07-27T08:17:43.106Z,18.73
2022-07-27T08:20:10.448Z,18.72
2022-07-27T08:22:36.859Z,19.03
2022-07-27T08:25:04.315Z,19.11
2022-07-27T08:27:30.779Z,19.22
2022-07-27T08:30:09.047Z,19.62
2022-07-27T08:32:59.721Z,19.13
2022-07-27T08:35:29.962Z,19.43
2022-07-27T08:37:57.129Z,19.43
2022-07-27T08:43:11.502Z,19.35
2022-07-27T08:45:38.516Z,19.20
2022-07-27T08:48:05.949Z,19.45
2022-07-27T08:50:34.724Z,19.08
2022-07-27T08:53:07.341Z,19.18
2022-07-27T08:55:36.262Z,19.12
2022-07-27T08:58:04.107Z,19.35
2022-07-27T09:00:31.683Z,19.47
2022-07-27T09:02:58.325Z,19.12
2022-07-27T09:05:25.059Z,19.12
2022-07-27T09:07:54.122Z,19.21
2022-07-27T09:10:32.327Z,19.64
2022-07-27T09:12:59.076Z,20.15
2022-07-27T09:15:34.177Z,19.93
2022-07-27T09:18:16.146Z,19.81
2022-07-27T09:20:42.621Z,19.96
2022-07-27T09:23:09.087Z,19.84
2022-07-27T09:26:02.279Z,19.73
2022-07-27T09:28:30.218Z,19.36
2022-07-27T09:31:05.804Z,19.14
2022-07-27T09:33:33.797Z,19.22
2022-07-27T09:36:00.481Z,19.44
2022-07-27T09:38:26.925Z,19.63
2022-07-27T09:41:00.864Z,19.89
2022-07-27T09:46:16.264Z,19.75
2022-07-27T09:48:42.988Z,19.91
2022-07-27T09:51:55.784Z,19.93
2022-07-27T09:54:05.808Z,19.83
2022-07-27T09:56:32.811Z,19.76
2022-07-27T09:59:00.995Z,19.71
2022-07-27T10:01:30.201Z,19.55
2022-07-27T10:04:00.389Z,19.48
2022-07-27T10:06:28.029Z,19.49
2022-07-27T10:08:55.929Z,19.58
2022-07-27T10:11:23.666Z,19.87
2022-07-27T10:13:52.576Z,20.06
2022-07-27T10:16:22.167Z,20.01
2022-07-27T10:19:15.339Z,19.54
2022-07-27T10:21:45.240Z,20.10
2022-07-27T10:24:24.215Z,20.16
2022-07-27T10:26:50.680Z,20.37
2022-07-27T10:29:23.469Z,20.54
2022-07-27T10:31:52.569Z,20.82
2022-07-27T10:34:43.975Z,20.63
2022-07-27T10:37:14.840Z,20.83
2022-07-27T10:39:41.189Z,20.53
2022-07-27T10:42:30.728Z,20.63
2022-07-27T10:44:59.859Z,20.73
2022-07-27T10:47:32.329Z,20.77
2022-07-27T10:50:16.954Z,20.20
2022-07-27T10:52:45.372Z,20.53
2022-07-27T10:55:42.642Z,20.99
2022-07-27T10:58:09.009Z,20.87
2022-07-27T11:00:54.757Z,21.07
2022-07-27T11:03:28.340Z,21.00
2022-07-27T11:06:03.281Z,21.21
2022-07-27T11:08:47.269Z,20.93
2022-07-27T11:11:19.942Z,20.93
2022-07-27T11:13:49.427Z,20.82
2022-07-27T11:16:25.908Z,21.04
2022-07-27T11:19:03.830Z,21.04
2022-07-27T11:21:36.487Z,20.93
2022-07-27T11:24:14.575Z,20.99
2022-07-27T11:26:50.101Z,20.75
2022-07-27T11:29:18.943Z,20.89
2022-07-27T11:31:56.340Z,20.78
2022-07-27T11:34:31.828Z,21.20
2022-07-27T11:37:02.096Z,21.41
2022-07-27T11:42:21.739Z,21.71
2022-07-27T11:44:52.610Z,21.49
2022-07-27T11:47:21.441Z,21.50
2022-07-27T11:49:47.935Z,21.39
2022-07-27T11:52:17.292Z,21.45
2022-07-27T11:54:43.742Z,21.34
2022-07-27T11:57:16.322Z,21.19
2022-07-27T11:59:44.629Z,21.37
2022-07-27T12:02:17.917Z,21.32
2022-07-27T12:04:46.578Z,21.46
2022-07-27T12:07:17.075Z,21.82
2022-07-27T12:09:48.667Z,22.12
2022-07-27T12:12:19.006Z,22.22
2022-07-27T12:14:51.304Z,22.07
2022-07-27T12:17:31.608Z,21.87
2022-07-27T12:20:00.271Z,21.96
2022-07-27T12:22:33.238Z,21.92
2022-07-27T12:25:01.904Z,22.08
2022-07-27T12:27:28.981Z,22.09
2022-07-27T12:29:56.456Z,21.91
2022-07-27T12:32:23.353Z,22.28
2022-07-27T12:34:49.788Z,22.44
2022-07-27T12:37:16.245Z,22.61
2022-07-27T12:39:44.165Z,22.76
2022-07-27T12:42:11.151Z,22.90
2022-07-27T12:44:41.276Z,22.77
2022-07-27T12:47:28.229Z,22.96
2022-07-27T12:50:15.707Z,23.24
2022-07-27T12:52:51.875Z,23.11
2022-07-27T12:55:20.453Z,23.22
2022-07-27T12:57:56.502Z,23.10
2022-07-27T13:00:29.405Z,22.88
2022-07-27T13:03:00.916Z,22.53
2022-07-27T13:05:27.433Z,22.57
2022-07-27T13:07:53.966Z,22.67
2022-07-27T13:10:20.510Z,22.70
2022-07-27T13:12:47.833Z,22.83
2022-07-27T13:15:15.215Z,22.83
2022-07-27T13:17:42.627Z,23.04
2022-07-27T13:20:10.845Z,22.69
2022-07-27T13:22:39.475Z,22.67
2022-07-27T13:25:16.132Z,22.85
2022-07-27T13:27:45.255Z,22.75
2022-07-27T13:30:13.303Z,22.97
2022-07-27T13:32:40.615Z,23.01
2022-07-27T13:35:09.141Z,22.92
2022-07-27T13:37:35.599Z,22.77
2022-07-27T13:40:02.032Z,22.86
2022-07-27T13:42:28.629Z,22.77
2022-07-27T13:45:08.664Z,23.18
2022-07-27T13:47:36.320Z,23.22
2022-07-27T13:50:03.478Z,23.08
2022-07-27T13:52:30.042Z,23.02
2022-07-27T13:54:56.455Z,23.17
2022-07-27T13:57:23.504Z,22.96
2022-07-27T13:59:49.909Z,22.64
2022-07-27T14:02:16.448Z,22.63
2022-07-27T14:04:49.300Z,22.51
2022-07-27T14:07:15.793Z,22.86
2022-07-27T14:10:01.191Z,22.88
2022-07-27T14:12:27.693Z,22.68
2022-07-27T14:14:54.163Z,22.66
2022-07-27T14:17:20.617Z,22.93
2022-07-27T14:19:47.037Z,23.22
2022-07-27T14:22:13.465Z,23.23
2022-07-27T14:24:39.898Z,23.21
2022-07-27T14:27:06.677Z,22.97
2022-07-27T14:29:34.175Z,22.79
2022-07-27T14:32:01.123Z,22.84
2022-07-27T14:34:27.648Z,22.93
2022-07-27T14:36:54.073Z,22.97
2022-07-27T14:39:20.491Z,22.78
2022-07-27T14:41:46.919Z,23.04
2022-07-27T14:44:14.038Z,23.06
2022-07-27T14:46:40.592Z,23.04
2022-07-27T14:49:08.468Z,22.95
2022-07-27T14:51:35.782Z,22.85
2022-07-27T14:54:03.657Z,22.54
2022-07-27T14:56:30.155Z,22.72
2022-07-27T14:58:56.622Z,22.72
2022-07-27T15:01:23.150Z,23.09
2022-07-27T15:03:50.372Z,23.09
2022-07-27T15:06:17.295Z,22.96
2022-07-27T15:08:43.722Z,22.82
2022-07-27T15:11:10.142Z,22.97
2022-07-27T15:13:36.576Z,23.01
2022-07-27T15:16:03.298Z,22.99
2022-07-27T15:18:34.988Z,23.12
2022-07-27T15:21:13.079Z,23.04
2022-07-27T15:23:42.164Z,23.02
2022-07-27T15:26:08.660Z,22.99
2022-07-27T15:28:36.310Z,22.94
2022-07-27T15:31:02.885Z,22.76
2022-07-27T15:33:29.343Z,23.13
2022-07-27T15:35:56.403Z,23.11
2022-07-27T15:38:22.981Z,23.14
2022-07-27T15:40:49.434Z,23.15
2022-07-27T15:43:17.248Z,23.10
2022-07-27T15:45:47.645Z,22.74
2022-07-27T15:48:15.616Z,22.86
2022-07-27T15:50:45.363Z,22.78
2022-07-27T15:53:13.104Z,22.64
2022-07-27T15:55:39.554Z,22.80
2022-07-27T15:58:06.600Z,22.90
2022-07-27T16:00:39.146Z,22.85
2022-07-27T16:03:07.316Z,22.65
2022-07-27T16:05:33.984Z,22.50
2022-07-27T16:08:00.447Z,22.52
2022-07-27T16:10:29.469Z,22.83
2022-07-27T16:12:56.871Z,22.99
2022-07-27T16:15:43.445Z,23.12
2022-07-27T16:18:10.010Z,23.24
2022-07-27T16:20:36.731Z,22.99
2022-07-27T16:23:03.312Z,23.17
2022-07-27T16:26:02.834Z,23.36
2022-07-27T16:28:30.109Z,23.46
2022-07-27T16:30:57.790Z,23.50
2022-07-27T16:33:24.426Z,23.18
2022-07-27T16:35:51.056Z,23.06
2022-07-27T16:38:17.555Z,22.97
2022-07-27T16:40:43.966Z,23.06
2022-07-27T16:43:10.384Z,23.10
2022-07-27T16:45:37.455Z,22.98
2022-07-27T16:48:03.870Z,22.84
2022-07-27T16:50:30.273Z,22.56
2022-07-27T16:52:56.754Z,22.71
2022-07-27T16:55:23.707Z,22.85
2022-07-27T16:57:53.967Z,22.73
2022-07-27T17:00:20.698Z,22.54
2022-07-27T17:02:47.366Z,22.44
2022-07-27T17:05:13.918Z,22.54
2022-07-27T17:07:41.330Z,22.52
2022-07-27T17:10:08.247Z,22.52
2022-07-27T17:12:39.082Z,22.52
2022-07-27T17:15:06.567Z,22.45
2022-07-27T17:17:32.980Z,22.34
2022-07-27T17:19:59.825Z,22.47
2022-07-27T17:22:26.275Z,22.41
2022-07-27T17:24:52.695Z,22.34
2022-07-27T17:27:19.142Z,22.46
2022-07-27T17:29:45.564Z,22.35
2022-07-27T17:32:12.006Z,22.44
2022-07-27T17:34:38.466Z,22.51
2022-07-27T17:37:04.903Z,22.40
2022-07-27T17:39:31.865Z,22.45
2022-07-27T17:41:58.470Z,22.43
2022-07-27T17:44:24.896Z,22.23
2022-07-27T17:46:51.419Z,22.23
2022-07-27T17:49:18.622Z,22.20
2022-07-27T17:51:45.347Z,22.13
2022-07-27T17:54:11.799Z,22.12
2022-07-27T17:56:38.279Z,22.03
2022-07-27T17:59:34.710Z,21.97
2022-07-27T18:01:52.663Z,21.80
2022-07-27T18:04:19.180Z,21.89
2022-07-27T18:06:45.679Z,21.88
2022-07-27T18:09:14.178Z,21.92
2022-07-27T18:11:41.062Z,21.95
2022-07-27T18:14:07.483Z,21.77
2022-07-27T18:16:40.195Z,21.64
2022-07-27T18:19:07.383Z,21.70
2022-07-27T18:21:34.776Z,21.71
2022-07-27T18:24:01.493Z,21.67
2022-07-27T18:26:28.019Z,21.63
2022-07-27T18:28:55.078Z,21.59
2022-07-27T18:31:21.617Z,21.35
2022-07-27T18:33:50.278Z,21.30
2022-07-27T18:36:17.684Z,21.30
2022-07-27T18:38:49.384Z,21.37
2022-07-27T18:41:19.875Z,21.27
2022-07-27T18:43:53.665Z,21.09
2022-07-27T18:46:23.823Z,21.13
2022-07-27T18:48:50.424Z,21.05
2022-07-27T18:51:17.297Z,20.98
2022-07-27T18:53:44.360Z,20.84
2022-07-27T18:56:11.195Z,20.81
2022-07-27T18:58:37.647Z,20.69
2022-07-27T19:01:04.270Z,20.67
2022-07-27T19:03:30.767Z,20.59
2022-07-27T19:05:58.787Z,20.46
2022-07-27T19:08:25.244Z,20.36
2022-07-27T19:10:51.872Z,20.27
2022-07-27T19:13:18.324Z,20.19
2022-07-27T19:15:45.276Z,20.03
2022-07-27T19:18:11.884Z,19.92
2022-07-27T19:20:38.313Z,19.83
2022-07-27T19:23:06.027Z,19.78
2022-07-27T19:25:33.730Z,19.67
2022-07-27T19:28:00.954Z,19.55
2022-07-27T19:30:27.753Z,19.48
2022-07-27T19:32:54.369Z,19.34
2022-07-27T19:35:20.801Z,19.27
2022-07-27T19:37:47.235Z,19.24
2022-07-27T19:40:42.625Z,18.99
2022-07-27T19:43:00.313Z,18.91
2022-07-27T19:45:26.801Z,18.81
2022-07-27T19:47:53.243Z,18.78
2022-07-27T19:50:19.748Z,18.72
2022-07-27T19:52:46.185Z,18.56
2022-07-27T19:55:12.638Z,18.59
2022-07-27T19:57:39.053Z,18.55
2022-07-27T20:00:07.716Z,18.30
2022-07-27T20:02:34.619Z,18.31
2022-07-27T20:05:01.148Z,18.31
2022-07-27T20:07:27.565Z,18.22
2022-07-27T20:09:54.002Z,18.21
2022-07-27T20:12:21.382Z,18.25
2022-07-27T20:14:48.063Z,18.10
2022-07-27T20:17:14.557Z,18.16
2022-07-27T20:19:41.068Z,18.02
2022-07-27T20:22:07.526Z,17.89
2022-07-27T20:24:33.967Z,18.01
2022-07-27T20:27:00.424Z,17.89
2022-07-27T20:29:29.538Z,17.89
2022-07-27T20:31:59.628Z,17.94
2022-07-27T20:34:26.161Z,17.93
2022-07-27T20:36:55.129Z,17.78
2022-07-27T20:39:21.977Z,17.62
2022-07-27T20:41:48.712Z,17.65
2022-07-27T20:44:15.185Z,17.62
2022-07-27T20:46:41.623Z,17.54
2022-07-27T20:49:08.076Z,17.49
2022-07-27T20:51:34.548Z,17.37
2022-07-27T20:54:00.978Z,17.30
2022-07-27T20:56:27.416Z,17.26
2022-07-27T20:58:53.986Z,17.16
2022-07-27T21:01:20.553Z,17.07
2022-07-27T21:03:47.050Z,17.02
2022-07-27T21:06:13.491Z,16.98
2022-07-27T21:08:45.996Z,16.83
2022-07-27T21:11:13.543Z,16.75
2022-07-27T21:13:40.302Z,16.73
2022-07-27T21:16:06.828Z,16.72
2022-07-27T21:18:33.545Z,16.65
2022-07-27T21:20:59.983Z,16.57
2022-07-27T21:23:44.856Z,16.45
2022-07-27T21:26:11.292Z,16.44
2022-07-27T21:28:41.927Z,16.31
2022-07-27T21:31:08.785Z,16.23
2022-07-27T21:33:39.628Z,16.18
2022-07-27T21:36:06.769Z,16.13
2022-07-27T21:38:33.193Z,16.07
2022-07-27T21:40:59.640Z,16.02
2022-07-27T21:43:26.071Z,15.94
2022-07-27T21:45:52.597Z,15.87
2022-07-27T21:48:19.131Z,15.89
2022-07-27T21:50:45.567Z,15.78
2022-07-27T21:53:12.024Z,15.81
2022-07-27T21:55:40.699Z,15.75
2022-07-27T21:58:07.272Z,15.68
2022-07-27T22:00:33.699Z,15.53
2022-07-27T22:03:00.127Z,15.51
2022-07-27T22:05:27.269Z,15.41
2022-07-27T22:07:53.717Z,15.41
2022-07-27T22:10:20.222Z,15.31
2022-07-27T22:12:46.771Z,15.25
2022-07-27T22:15:13.291Z,15.20
2022-07-27T22:17:46.233Z,15.15
2022-07-27T22:20:17.375Z,15.07
2022-07-27T22:22:43.987Z,15.01
2022-07-27T22:25:10.630Z,14.90
2022-07-27T22:27:37.060Z,14.87
2022-07-27T22:30:04.027Z,14.80
2022-07-27T22:32:30.482Z,14.78
2022-07-27T22:34:56.911Z,14.76
2022-07-27T22:37:23.339Z,14.66
2022-07-27T22:39:49.772Z,14.61
2022-07-27T22:42:16.224Z,14.58
2022-07-27T22:44:43.153Z,14.50
2022-07-27T22:47:10.136Z,14.47
2022-07-27T22:49:37.198Z,14.40
2022-07-27T22:52:07.079Z,14.25
2022-07-27T22:54:37.568Z,14.19
2022-07-27T22:57:05.747Z,14.19
2022-07-27T22:59:32.656Z,14.02
2022-07-27T23:01:59.213Z,14.00
2022-07-27T23:04:25.898Z,14.01
2022-07-27T23:06:52.345Z,14.02
2022-07-27T23:09:18.895Z,13.93
2022-07-27T23:11:45.576Z,13.91
2022-07-27T23:14:12.906Z,13.81
2022-07-27T23:16:39.870Z,13.78
2022-07-27T23:19:06.363Z,13.75
2022-07-27T23:21:32.791Z,13.67
2022-07-27T23:23:59.360Z,13.56
2022-07-27T23:26:27.429Z,13.50
2022-07-27T23:28:54.219Z,13.50
2022-07-27T23:31:21.360Z,13.48
2022-07-27T23:33:47.929Z,13.46
2022-07-27T23:36:15.031Z,13.40
2022-07-27T23:38:41.491Z,13.36
2022-07-27T23:41:08.299Z,13.38
2022-07-27T23:43:34.756Z,13.30
2022-07-27T23:46:01.242Z,13.32
2022-07-27T23:48:28.672Z,13.32
2022-07-27T23:50:56.017Z,13.30
2022-07-27T23:53:22.650Z,13.24
2022-07-27T23:55:49.083Z,13.15
2022-07-27T23:58:15.522Z,13.08
